sensor_id;sensor_type;location;lat;lon;timestamp;P1;durP1;ratioP1;P2;durP2;ratioP2
16957;SDS011;8595;52.542;11.974;2022-08-18T00:02:00;13.18;;;11.88;;
16957;SDS011;8595;52.542;11.974;2022-08-18T00:04:30;12.95;;;11.63;;
16957;SDS011;8595;52.542;11.974;2022-08-18T00:06:59;14.23;;;12.82;;
16957;SDS011;8595;52.542;11.974;2022-08-18T00:09:26;14.35;;;11.90;;
16957;SDS011;8595;52.542;11.974;2022-08-18T00:11:53;12.68;;;11.35;;
16957;SDS011;8595;52.542;11.974;2022-08-18T00:14:20;12.05;;;10.80;;
16957;SDS011;8595;52.542;11.974;2022-08-18T00:16:47;13.60;;;11.55;;
16957;SDS011;8595;52.542;11.974;2022-08-18T00:19:16;13.15;;;11.95;;
16957;SDS011;8595;52.542;11.974;2022-08-18T00:21:42;13.30;;;12.05;;
16957;SDS011;8595;52.542;11.974;2022-08-18T00:24:09;13.73;;;12.45;;
16957;SDS011;8595;52.542;11.974;2022-08-18T00:26:36;14.90;;;13.30;;
16957;SDS011;8595;52.542;11.974;2022-08-18T00:29:02;16.40;;;12.38;;
16957;SDS011;8595;52.542;11.974;2022-08-18T00:31:29;13.80;;;12.40;;
16957;SDS011;8595;52.542;11.974;2022-08-18T00:33:56;14.02;;;12.63;;
16957;SDS011;8595;52.542;11.974;2022-08-18T00:36:24;16.42;;;12.25;;
16957;SDS011;8595;52.542;11.974;2022-08-18T00:38:51;13.40;;;12.05;;
16957;SDS011;8595;52.542;11.974;2022-08-18T00:41:17;14.93;;;11.68;;
16957;SDS011;8595;52.542;11.974;2022-08-18T00:43:46;13.98;;;12.68;;
16957;SDS011;8595;52.542;11.974;2022-08-18T00:46:17;12.50;;;11.25;;
16957;SDS011;8595;52.542;11.974;2022-08-18T00:48:45;12.63;;;11.32;;
16957;SDS011;8595;52.542;11.974;2022-08-18T00:51:14;13.93;;;12.45;;
16957;SDS011;8595;52.542;11.974;2022-08-18T00:53:47;21.27;;;12.15;;
16957;SDS011;8595;52.542;11.974;2022-08-18T00:56:20;14.90;;;13.60;;
16957;SDS011;8595;52.542;11.974;2022-08-18T00:58:51;14.40;;;13.00;;
16957;SDS011;8595;52.542;11.974;2022-08-18T01:01:23;14.25;;;12.25;;
16957;SDS011;8595;52.542;11.974;2022-08-18T01:03:55;12.80;;;11.45;;
16957;SDS011;8595;52.542;11.974;2022-08-18T01:06:27;12.43;;;11.23;;
16957;SDS011;8595;52.542;11.974;2022-08-18T01:09:00;13.55;;;11.93;;
16957;SDS011;8595;52.542;11.974;2022-08-18T01:11:27;15.15;;;11.52;;
16957;SDS011;8595;52.542;11.974;2022-08-18T01:13:54;13.32;;;11.77;;
16957;SDS011;8595;52.542;11.974;2022-08-18T01:16:22;13.10;;;11.95;;
16957;SDS011;8595;52.542;11.974;2022-08-18T01:19:07;15.50;;;13.60;;
16957;SDS011;8595;52.542;11.974;2022-08-18T01:22:07;20.88;;;13.20;;
16957;SDS011;8595;52.542;11.974;2022-08-18T01:24:41;15.23;;;12.98;;
16957;SDS011;8595;52.542;11.974;2022-08-18T01:27:26;15.95;;;14.30;;
16957;SDS011;8595;52.542;11.974;2022-08-18T01:29:56;18.25;;;13.18;;
16957;SDS011;8595;52.542;11.974;2022-08-18T01:32:29;15.40;;;13.65;;
16957;SDS011;8595;52.542;11.974;2022-08-18T01:34:56;17.55;;;13.75;;
16957;SDS011;8595;52.542;11.974;2022-08-18T01:37:23;14.60;;;13.30;;
16957;SDS011;8595;52.542;11.974;2022-08-18T01:39:51;14.80;;;13.50;;
16957;SDS011;8595;52.542;11.974;2022-08-18T01:42:18;15.10;;;13.65;;
16957;SDS011;8595;52.542;11.974;2022-08-18T01:44:46;15.20;;;13.73;;
16957;SDS011;8595;52.542;11.974;2022-08-18T01:47:15;17.20;;;14.13;;
16957;SDS011;8595;52.542;11.974;2022-08-18T01:49:45;15.20;;;13.57;;
16957;SDS011;8595;52.542;11.974;2022-08-18T01:52:13;16.23;;;14.68;;
16957;SDS011;8595;52.542;11.974;2022-08-18T01:54:43;15.88;;;14.15;;
16957;SDS011;8595;52.542;11.974;2022-08-18T01:57:11;19.92;;;16.02;;
16957;SDS011;8595;52.542;11.974;2022-08-18T01:59:38;16.73;;;14.88;;
16957;SDS011;8595;52.542;11.974;2022-08-18T02:02:05;16.45;;;14.52;;
16957;SDS011;8595;52.542;11.974;2022-08-18T02:04:33;17.75;;;15.85;;
16957;SDS011;8595;52.542;11.974;2022-08-18T02:07:00;16.67;;;14.95;;
16957;SDS011;8595;52.542;11.974;2022-08-18T02:09:29;19.55;;;15.80;;
16957;SDS011;8595;52.542;11.974;2022-08-18T02:11:56;17.17;;;15.57;;
16957;SDS011;8595;52.542;11.974;2022-08-18T02:14:23;17.05;;;15.48;;
16957;SDS011;8595;52.542;11.974;2022-08-18T02:16:50;17.08;;;15.35;;
16957;SDS011;8595;52.542;11.974;2022-08-18T02:19:17;18.08;;;16.38;;
16957;SDS011;8595;52.542;11.974;2022-08-18T02:21:43;16.27;;;14.70;;
16957;SDS011;8595;52.542;11.974;2022-08-18T02:24:10;14.82;;;13.45;;
16957;SDS011;8595;52.542;11.974;2022-08-18T02:26:37;17.10;;;15.35;;
16957;SDS011;8595;52.542;11.974;2022-08-18T02:29:03;19.60;;;15.38;;
16957;SDS011;8595;52.542;11.974;2022-08-18T02:31:31;16.73;;;13.68;;
16957;SDS011;8595;52.542;11.974;2022-08-18T02:33:58;17.35;;;15.65;;
16957;SDS011;8595;52.542;11.974;2022-08-18T02:36:25;16.40;;;14.90;;
16957;SDS011;8595;52.542;11.974;2022-08-18T02:38:52;18.25;;;16.45;;
16957;SDS011;8595;52.542;11.974;2022-08-18T02:41:19;16.15;;;14.52;;
16957;SDS011;8595;52.542;11.974;2022-08-18T02:43:46;17.13;;;14.50;;
16957;SDS011;8595;52.542;11.974;2022-08-18T02:46:13;17.63;;;15.13;;
16957;SDS011;8595;52.542;11.974;2022-08-18T02:48:41;17.00;;;15.18;;
16957;SDS011;8595;52.542;11.974;2022-08-18T02:51:09;19.30;;;15.82;;
16957;SDS011;8595;52.542;11.974;2022-08-18T02:53:37;17.35;;;15.40;;
16957;SDS011;8595;52.542;11.974;2022-08-18T02:56:06;18.17;;;16.40;;
16957;SDS011;8595;52.542;11.974;2022-08-18T02:58:44;17.00;;;15.20;;
16957;SDS011;8595;52.542;11.974;2022-08-18T03:01:10;17.55;;;15.65;;
16957;SDS011;8595;52.542;11.974;2022-08-18T03:03:37;16.92;;;15.13;;
16957;SDS011;8595;52.542;11.974;2022-08-18T03:06:05;17.58;;;15.75;;
16957;SDS011;8595;52.542;11.974;2022-08-18T03:08:32;17.98;;;16.00;;
16957;SDS011;8595;52.542;11.974;2022-08-18T03:10:59;18.00;;;15.18;;
16957;SDS011;8595;52.542;11.974;2022-08-18T03:13:25;18.30;;;16.45;;
16957;SDS011;8595;52.542;11.974;2022-08-18T03:15:54;18.45;;;15.68;;
16957;SDS011;8595;52.542;11.974;2022-08-18T03:18:21;17.35;;;15.65;;
16957;SDS011;8595;52.542;11.974;2022-08-18T03:20:48;19.25;;;16.27;;
16957;SDS011;8595;52.542;11.974;2022-08-18T03:23:16;17.48;;;15.52;;
16957;SDS011;8595;52.542;11.974;2022-08-18T03:25:43;18.58;;;16.83;;
16957;SDS011;8595;52.542;11.974;2022-08-18T03:28:11;21.55;;;18.65;;
16957;SDS011;8595;52.542;11.974;2022-08-18T03:30:39;19.95;;;18.08;;
16957;SDS011;8595;52.542;11.974;2022-08-18T03:33:06;21.77;;;19.55;;
16957;SDS011;8595;52.542;11.974;2022-08-18T03:35:33;19.48;;;17.58;;
16957;SDS011;8595;52.542;11.974;2022-08-18T03:38:00;22.92;;;17.92;;
16957;SDS011;8595;52.542;11.974;2022-08-18T03:40:28;20.92;;;18.83;;
16957;SDS011;8595;52.542;11.974;2022-08-18T03:42:55;19.85;;;16.77;;
16957;SDS011;8595;52.542;11.974;2022-08-18T03:45:21;19.23;;;17.25;;
16957;SDS011;8595;52.542;11.974;2022-08-18T03:47:51;21.77;;;17.73;;
16957;SDS011;8595;52.542;11.974;2022-08-18T03:50:18;19.67;;;17.55;;
16957;SDS011;8595;52.542;11.974;2022-08-18T03:52:45;20.88;;;18.58;;
16957;SDS011;8595;52.542;11.974;2022-08-18T03:55:13;20.08;;;18.13;;
16957;SDS011;8595;52.542;11.974;2022-08-18T03:57:41;19.20;;;17.20;;
16957;SDS011;8595;52.542;11.974;2022-08-18T04:00:08;19.88;;;17.88;;
16957;SDS011;8595;52.542;11.974;2022-08-18T04:02:36;19.08;;;16.95;;
16957;SDS011;8595;52.542;11.974;2022-08-18T04:05:03;19.75;;;17.75;;
16957;SDS011;8595;52.542;11.974;2022-08-18T04:07:31;18.67;;;16.88;;
16957;SDS011;8595;52.542;11.974;2022-08-18T04:09:58;19.17;;;17.35;;
16957;SDS011;8595;52.542;11.974;2022-08-18T04:12:25;20.85;;;18.20;;
16957;SDS011;8595;52.542;11.974;2022-08-18T04:14:53;24.05;;;17.35;;
16957;SDS011;8595;52.542;11.974;2022-08-18T04:17:20;21.52;;;16.83;;
16957;SDS011;8595;52.542;11.974;2022-08-18T04:19:48;18.17;;;16.38;;
16957;SDS011;8595;52.542;11.974;2022-08-18T04:22:16;19.42;;;17.40;;
16957;SDS011;8595;52.542;11.974;2022-08-18T04:24:43;18.90;;;17.10;;
16957;SDS011;8595;52.542;11.974;2022-08-18T04:27:10;19.77;;;17.00;;
16957;SDS011;8595;52.542;11.974;2022-08-18T04:29:37;19.95;;;18.00;;
16957;SDS011;8595;52.542;11.974;2022-08-18T04:32:05;19.52;;;17.38;;
16957;SDS011;8595;52.542;11.974;2022-08-18T04:34:32;21.10;;;17.83;;
16957;SDS011;8595;52.542;11.974;2022-08-18T04:36:59;19.17;;;16.95;;
16957;SDS011;8595;52.542;11.974;2022-08-18T04:39:26;18.88;;;16.77;;
16957;SDS011;8595;52.542;11.974;2022-08-18T04:41:53;24.40;;;17.80;;
16957;SDS011;8595;52.542;11.974;2022-08-18T04:44:20;20.20;;;18.13;;
16957;SDS011;8595;52.542;11.974;2022-08-18T04:46:50;20.23;;;18.17;;
16957;SDS011;8595;52.542;11.974;2022-08-18T04:49:21;19.98;;;18.02;;
16957;SDS011;8595;52.542;11.974;2022-08-18T04:51:50;19.00;;;16.88;;
16957;SDS011;8595;52.542;11.974;2022-08-18T04:54:37;22.98;;;17.83;;
16957;SDS011;8595;52.542;11.974;2022-08-18T04:57:09;19.20;;;16.25;;
16957;SDS011;8595;52.542;11.974;2022-08-18T04:59:39;21.15;;;18.92;;
16957;SDS011;8595;52.542;11.974;2022-08-18T05:02:06;23.67;;;16.67;;
16957;SDS011;8595;52.542;11.974;2022-08-18T05:04:34;30.10;;;18.05;;
16957;SDS011;8595;52.542;11.974;2022-08-18T05:07:02;19.73;;;17.38;;
16957;SDS011;8595;52.542;11.974;2022-08-18T05:09:29;21.08;;;18.77;;
16957;SDS011;8595;52.542;11.974;2022-08-18T05:11:57;18.42;;;16.52;;
16957;SDS011;8595;52.542;11.974;2022-08-18T05:14:23;19.58;;;17.55;;
16957;SDS011;8595;52.542;11.974;2022-08-18T05:16:50;22.13;;;19.58;;
16957;SDS011;8595;52.542;11.974;2022-08-18T05:19:17;19.67;;;17.77;;
16957;SDS011;8595;52.542;11.974;2022-08-18T05:21:48;19.42;;;17.13;;
16957;SDS011;8595;52.542;11.974;2022-08-18T05:24:15;18.52;;;16.73;;
16957;SDS011;8595;52.542;11.974;2022-08-18T05:26:42;18.98;;;17.05;;
16957;SDS011;8595;52.542;11.974;2022-08-18T05:29:09;19.42;;;17.42;;
16957;SDS011;8595;52.542;11.974;2022-08-18T05:31:36;19.40;;;17.30;;
16957;SDS011;8595;52.542;11.974;2022-08-18T05:34:04;17.35;;;15.63;;
16957;SDS011;8595;52.542;11.974;2022-08-18T05:36:40;20.00;;;17.90;;
16957;SDS011;8595;52.542;11.974;2022-08-18T05:39:24;18.63;;;16.63;;
16957;SDS011;8595;52.542;11.974;2022-08-18T05:41:54;20.30;;;18.27;;
16957;SDS011;8595;52.542;11.974;2022-08-18T05:44:28;17.45;;;15.52;;
16957;SDS011;8595;52.542;11.974;2022-08-18T05:46:58;19.48;;;16.73;;
16957;SDS011;8595;52.542;11.974;2022-08-18T05:49:30;20.55;;;16.83;;
16957;SDS011;8595;52.542;11.974;2022-08-18T05:52:02;20.45;;;18.42;;
16957;SDS011;8595;52.542;11.974;2022-08-18T05:54:36;18.80;;;16.85;;
16957;SDS011;8595;52.542;11.974;2022-08-18T05:57:22;20.30;;;17.40;;
16957;SDS011;8595;52.542;11.974;2022-08-18T05:59:51;21.48;;;15.93;;
16957;SDS011;8595;52.542;11.974;2022-08-18T06:02:23;19.42;;;17.50;;
16957;SDS011;8595;52.542;11.974;2022-08-18T06:04:57;18.75;;;16.95;;
16957;SDS011;8595;52.542;11.974;2022-08-18T06:07:29;20.63;;;18.42;;
16957;SDS011;8595;52.542;11.974;2022-08-18T06:09:59;19.90;;;17.77;;
16957;SDS011;8595;52.542;11.974;2022-08-18T06:12:27;20.38;;;18.25;;
16957;SDS011;8595;52.542;11.974;2022-08-18T06:15:00;22.08;;;17.88;;
16957;SDS011;8595;52.542;11.974;2022-08-18T06:17:34;19.67;;;17.63;;
16957;SDS011;8595;52.542;11.974;2022-08-18T06:20:11;17.77;;;15.98;;
16957;SDS011;8595;52.542;11.974;2022-08-18T06:22:49;19.45;;;17.33;;
16957;SDS011;8595;52.542;11.974;2022-08-18T06:25:21;20.58;;;18.42;;
16957;SDS011;8595;52.542;11.974;2022-08-18T06:27:57;17.50;;;15.70;;
16957;SDS011;8595;52.542;11.974;2022-08-18T06:30:41;22.13;;;17.90;;
16957;SDS011;8595;52.542;11.974;2022-08-18T06:33:16;19.27;;;17.48;;
16957;SDS011;8595;52.542;11.974;2022-08-18T06:35:58;17.10;;;15.50;;
16957;SDS011;8595;52.542;11.974;2022-08-18T06:38:37;19.40;;;15.50;;
16957;SDS011;8595;52.542;11.974;2022-08-18T06:41:11;15.75;;;14.25;;
16957;SDS011;8595;52.542;11.974;2022-08-18T06:43:43;21.55;;;17.38;;
16957;SDS011;8595;52.542;11.974;2022-08-18T06:46:22;19.25;;;17.25;;
16957;SDS011;8595;52.542;11.974;2022-08-18T06:48:59;18.60;;;15.70;;
16957;SDS011;8595;52.542;11.974;2022-08-18T06:51:30;26.23;;;17.13;;
16957;SDS011;8595;52.542;11.974;2022-08-18T06:54:00;16.60;;;14.38;;
16957;SDS011;8595;52.542;11.974;2022-08-18T06:56:32;18.02;;;15.25;;
16957;SDS011;8595;52.542;11.974;2022-08-18T06:59:20;18.63;;;16.02;;
16957;SDS011;8595;52.542;11.974;2022-08-18T07:01:50;16.98;;;15.38;;
16957;SDS011;8595;52.542;11.974;2022-08-18T07:07:11;16.63;;;15.05;;
16957;SDS011;8595;52.542;11.974;2022-08-18T07:09:42;17.40;;;15.48;;
16957;SDS011;8595;52.542;11.974;2022-08-18T07:12:10;19.05;;;15.25;;
16957;SDS011;8595;52.542;11.974;2022-08-18T07:14:46;17.30;;;15.15;;
16957;SDS011;8595;52.542;11.974;2022-08-18T07:17:18;18.38;;;16.02;;
16957;SDS011;8595;52.542;11.974;2022-08-18T07:19:53;17.33;;;15.73;;
16957;SDS011;8595;52.542;11.974;2022-08-18T07:22:25;17.20;;;15.45;;
16957;SDS011;8595;52.542;11.974;2022-08-18T07:24:55;22.35;;;16.42;;
16957;SDS011;8595;52.542;11.974;2022-08-18T07:27:41;16.90;;;13.55;;
16957;SDS011;8595;52.542;11.974;2022-08-18T07:30:14;20.33;;;16.75;;
16957;SDS011;8595;52.542;11.974;2022-08-18T07:32:52;18.48;;;16.73;;
16957;SDS011;8595;52.542;11.974;2022-08-18T07:35:24;21.95;;;18.77;;
16957;SDS011;8595;52.542;11.974;2022-08-18T07:37:56;22.55;;;16.08;;
16957;SDS011;8595;52.542;11.974;2022-08-18T07:40:30;16.92;;;14.75;;
16957;SDS011;8595;52.542;11.974;2022-08-18T07:43:00;19.13;;;17.00;;
16957;SDS011;8595;52.542;11.974;2022-08-18T07:45:32;21.27;;;16.25;;
16957;SDS011;8595;52.542;11.974;2022-08-18T07:48:03;17.05;;;15.30;;
16957;SDS011;8595;52.542;11.974;2022-08-18T07:50:38;17.40;;;14.80;;
16957;SDS011;8595;52.542;11.974;2022-08-18T07:53:12;16.63;;;14.52;;
16957;SDS011;8595;52.542;11.974;2022-08-18T07:55:57;14.30;;;13.10;;
16957;SDS011;8595;52.542;11.974;2022-08-18T07:58:31;20.30;;;14.60;;
16957;SDS011;8595;52.542;11.974;2022-08-18T08:01:02;19.88;;;14.32;;
16957;SDS011;8595;52.542;11.974;2022-08-18T08:03:38;15.20;;;13.70;;
16957;SDS011;8595;52.542;11.974;2022-08-18T08:06:13;15.10;;;13.50;;
16957;SDS011;8595;52.542;11.974;2022-08-18T08:08:56;24.27;;;17.45;;
16957;SDS011;8595;52.542;11.974;2022-08-18T08:11:36;15.52;;;13.88;;
16957;SDS011;8595;52.542;11.974;2022-08-18T08:14:11;15.73;;;14.02;;
16957;SDS011;8595;52.542;11.974;2022-08-18T08:17:09;15.38;;;13.50;;
16957;SDS011;8595;52.542;11.974;2022-08-18T08:19:52;16.08;;;14.52;;
16957;SDS011;8595;52.542;11.974;2022-08-18T08:22:35;15.93;;;14.27;;
16957;SDS011;8595;52.542;11.974;2022-08-18T08:25:06;14.90;;;13.40;;
16957;SDS011;8595;52.542;11.974;2022-08-18T08:27:47;13.15;;;11.65;;
16957;SDS011;8595;52.542;11.974;2022-08-18T08:30:24;14.52;;;13.07;;
16957;SDS011;8595;52.542;11.974;2022-08-18T08:32:57;14.55;;;12.07;;
16957;SDS011;8595;52.542;11.974;2022-08-18T08:35:33;13.27;;;11.98;;
16957;SDS011;8595;52.542;11.974;2022-08-18T08:38:05;13.70;;;12.25;;
16957;SDS011;8595;52.542;11.974;2022-08-18T08:40:37;13.55;;;11.82;;
16957;SDS011;8595;52.542;11.974;2022-08-18T08:43:14;13.85;;;10.75;;
16957;SDS011;8595;52.542;11.974;2022-08-18T08:45:44;15.32;;;12.20;;
16957;SDS011;8595;52.542;11.974;2022-08-18T08:48:14;17.17;;;12.40;;
16957;SDS011;8595;52.542;11.974;2022-08-18T08:50:46;16.63;;;12.27;;
16957;SDS011;8595;52.542;11.974;2022-08-18T08:53:17;13.82;;;11.05;;
16957;SDS011;8595;52.542;11.974;2022-08-18T08:55:48;12.57;;;11.27;;
16957;SDS011;8595;52.542;11.974;2022-08-18T08:58:21;16.60;;;12.27;;
16957;SDS011;8595;52.542;11.974;2022-08-18T09:00:51;13.27;;;10.27;;
16957;SDS011;8595;52.542;11.974;2022-08-18T09:03:21;12.48;;;11.20;;
16957;SDS011;8595;52.542;11.974;2022-08-18T09:05:59;18.95;;;11.25;;
16957;SDS011;8595;52.542;11.974;2022-08-18T09:11:41;10.98;;;9.88;;
16957;SDS011;8595;52.542;11.974;2022-08-18T09:14:37;9.93;;;8.57;;
16957;SDS011;8595;52.542;11.974;2022-08-18T09:17:31;10.73;;;8.15;;
16957;SDS011;8595;52.542;11.974;2022-08-18T09:20:22;12.30;;;9.48;;
16957;SDS011;8595;52.542;11.974;2022-08-18T09:23:03;12.25;;;9.00;;
16957;SDS011;8595;52.542;11.974;2022-08-18T09:25:33;11.70;;;9.00;;
16957;SDS011;8595;52.542;11.974;2022-08-18T09:28:11;8.77;;;7.63;;
16957;SDS011;8595;52.542;11.974;2022-08-18T09:30:44;13.50;;;8.93;;
16957;SDS011;8595;52.542;11.974;2022-08-18T09:33:16;8.52;;;7.25;;
16957;SDS011;8595;52.542;11.974;2022-08-18T09:35:52;9.77;;;8.60;;
16957;SDS011;8595;52.542;11.974;2022-08-18T09:38:25;11.43;;;7.95;;
16957;SDS011;8595;52.542;11.974;2022-08-18T09:41:15;11.65;;;9.63;;
16957;SDS011;8595;52.542;11.974;2022-08-18T09:43:58;11.63;;;8.68;;
16957;SDS011;8595;52.542;11.974;2022-08-18T09:46:55;8.75;;;7.88;;
16957;SDS011;8595;52.542;11.974;2022-08-18T09:49:40;19.20;;;9.73;;
16957;SDS011;8595;52.542;11.974;2022-08-18T09:58:12;9.50;;;8.48;;
16957;SDS011;8595;52.542;11.974;2022-08-18T10:00:42;13.55;;;9.40;;
16957;SDS011;8595;52.542;11.974;2022-08-18T10:08:54;13.32;;;10.60;;
16957;SDS011;8595;52.542;11.974;2022-08-18T10:11:42;14.43;;;8.68;;
16957;SDS011;8595;52.542;11.974;2022-08-18T10:17:32;13.90;;;9.93;;
16957;SDS011;8595;52.542;11.974;2022-08-18T10:20:19;10.32;;;9.35;;
16957;SDS011;8595;52.542;11.974;2022-08-18T10:22:54;10.25;;;8.52;;
16957;SDS011;8595;52.542;11.974;2022-08-18T10:25:32;14.80;;;9.27;;
16957;SDS011;8595;52.542;11.974;2022-08-18T10:28:01;11.52;;;10.43;;
16957;SDS011;8595;52.542;11.974;2022-08-18T10:33:55;13.48;;;11.32;;
16957;SDS011;8595;52.542;11.974;2022-08-18T10:36:38;11.27;;;10.27;;
16957;SDS011;8595;52.542;11.974;2022-08-18T10:39:10;13.45;;;9.70;;
16957;SDS011;8595;52.542;11.974;2022-08-18T10:41:43;15.15;;;11.05;;
16957;SDS011;8595;52.542;11.974;2022-08-18T10:44:17;11.73;;;10.55;;
16957;SDS011;8595;52.542;11.974;2022-08-18T10:46:47;12.20;;;10.98;;
16957;SDS011;8595;52.542;11.974;2022-08-18T10:49:17;11.10;;;10.00;;
16957;SDS011;8595;52.542;11.974;2022-08-18T10:51:54;13.63;;;10.25;;
16957;SDS011;8595;52.542;11.974;2022-08-18T10:54:49;13.48;;;10.13;;
16957;SDS011;8595;52.542;11.974;2022-08-18T10:57:38;11.32;;;10.13;;
16957;SDS011;8595;52.542;11.974;2022-08-18T11:00:20;12.55;;;10.05;;
16957;SDS011;8595;52.542;11.974;2022-08-18T11:02:52;13.45;;;11.60;;
16957;SDS011;8595;52.542;11.974;2022-08-18T11:05:30;11.40;;;10.23;;
16957;SDS011;8595;52.542;11.974;2022-08-18T11:07:59;14.50;;;11.18;;
16957;SDS011;8595;52.542;11.974;2022-08-18T11:10:34;13.43;;;9.00;;
16957;SDS011;8595;52.542;11.974;2022-08-18T11:13:06;25.13;;;10.38;;
16957;SDS011;8595;52.542;11.974;2022-08-18T11:15:43;11.18;;;10.00;;
16957;SDS011;8595;52.542;11.974;2022-08-18T11:18:22;9.75;;;8.82;;
16957;SDS011;8595;52.542;11.974;2022-08-18T11:24:05;9.38;;;8.07;;
16957;SDS011;8595;52.542;11.974;2022-08-18T11:26:35;9.63;;;8.63;;
16957;SDS011;8595;52.542;11.974;2022-08-18T11:29:17;12.57;;;9.23;;
16957;SDS011;8595;52.542;11.974;2022-08-18T11:31:45;14.85;;;9.23;;
16957;SDS011;8595;52.542;11.974;2022-08-18T11:34:14;10.00;;;8.55;;
16957;SDS011;8595;52.542;11.974;2022-08-18T11:37:01;12.60;;;8.18;;
16957;SDS011;8595;52.542;11.974;2022-08-18T11:39:31;11.93;;;8.63;;
16957;SDS011;8595;52.542;11.974;2022-08-18T11:41:58;10.60;;;7.95;;
16957;SDS011;8595;52.542;11.974;2022-08-18T11:44:29;8.82;;;7.90;;
16957;SDS011;8595;52.542;11.974;2022-08-18T11:47:08;13.23;;;8.93;;
16957;SDS011;8595;52.542;11.974;2022-08-18T11:49:47;11.40;;;7.60;;
16957;SDS011;8595;52.542;11.974;2022-08-18T11:52:21;8.60;;;7.78;;
16957;SDS011;8595;52.542;11.974;2022-08-18T11:54:51;8.57;;;7.63;;
16957;SDS011;8595;52.542;11.974;2022-08-18T12:00:38;8.18;;;7.18;;
16957;SDS011;8595;52.542;11.974;2022-08-18T12:03:21;18.17;;;6.63;;
16957;SDS011;8595;52.542;11.974;2022-08-18T12:05:55;9.13;;;7.38;;
16957;SDS011;8595;52.542;11.974;2022-08-18T12:08:27;8.60;;;6.82;;
16957;SDS011;8595;52.542;11.974;2022-08-18T12:11:04;9.30;;;6.88;;
16957;SDS011;8595;52.542;11.974;2022-08-18T12:13:42;8.77;;;7.45;;
16957;SDS011;8595;52.542;11.974;2022-08-18T12:16:13;7.47;;;6.78;;
16957;SDS011;8595;52.542;11.974;2022-08-18T12:18:43;11.70;;;7.22;;
16957;SDS011;8595;52.542;11.974;2022-08-18T12:21:10;10.85;;;7.00;;
16957;SDS011;8595;52.542;11.974;2022-08-18T12:23:38;10.75;;;7.43;;
16957;SDS011;8595;52.542;11.974;2022-08-18T12:26:08;9.07;;;6.65;;
16957;SDS011;8595;52.542;11.974;2022-08-18T12:28:35;8.15;;;6.43;;
16957;SDS011;8595;52.542;11.974;2022-08-18T12:31:03;10.30;;;6.45;;
16957;SDS011;8595;52.542;11.974;2022-08-18T12:33:31;7.38;;;6.28;;
16957;SDS011;8595;52.542;11.974;2022-08-18T12:35:58;9.70;;;6.82;;
16957;SDS011;8595;52.542;11.974;2022-08-18T12:38:26;6.47;;;5.97;;
16957;SDS011;8595;52.542;11.974;2022-08-18T12:40:53;10.55;;;6.70;;
16957;SDS011;8595;52.542;11.974;2022-08-18T12:43:22;7.30;;;6.60;;
16957;SDS011;8595;52.542;11.974;2022-08-18T12:45:48;7.40;;;6.13;;
16957;SDS011;8595;52.542;11.974;2022-08-18T12:48:15;7.00;;;6.40;;
16957;SDS011;8595;52.542;11.974;2022-08-18T12:50:42;8.88;;;5.90;;
16957;SDS011;8595;52.542;11.974;2022-08-18T12:53:09;7.18;;;5.82;;
16957;SDS011;8595;52.542;11.974;2022-08-18T12:55:38;6.10;;;5.47;;
16957;SDS011;8595;52.542;11.974;2022-08-18T12:58:06;8.85;;;5.30;;
16957;SDS011;8595;52.542;11.974;2022-08-18T13:00:35;9.45;;;5.20;;
16957;SDS011;8595;52.542;11.974;2022-08-18T13:03:03;5.82;;;5.25;;
16957;SDS011;8595;52.542;11.974;2022-08-18T13:05:30;6.30;;;5.70;;
16957;SDS011;8595;52.542;11.974;2022-08-18T13:08:00;8.27;;;5.03;;
16957;SDS011;8595;52.542;11.974;2022-08-18T13:10:29;8.55;;;5.80;;
16957;SDS011;8595;52.542;11.974;2022-08-18T13:12:56;7.63;;;4.93;;
16957;SDS011;8595;52.542;11.974;2022-08-18T13:15:23;9.98;;;5.07;;
16957;SDS011;8595;52.542;11.974;2022-08-18T13:17:52;7.70;;;5.95;;
16957;SDS011;8595;52.542;11.974;2022-08-18T13:20:19;5.55;;;5.05;;
16957;SDS011;8595;52.542;11.974;2022-08-18T13:22:46;6.38;;;5.07;;
16957;SDS011;8595;52.542;11.974;2022-08-18T13:25:14;6.38;;;5.78;;
16957;SDS011;8595;52.542;11.974;2022-08-18T13:27:42;6.03;;;5.53;;
16957;SDS011;8595;52.542;11.974;2022-08-18T13:30:10;6.07;;;5.20;;
16957;SDS011;8595;52.542;11.974;2022-08-18T13:32:38;5.55;;;5.15;;
16957;SDS011;8595;52.542;11.974;2022-08-18T13:35:07;8.35;;;4.82;;
16957;SDS011;8595;52.542;11.974;2022-08-18T13:37:35;11.50;;;6.07;;
16957;SDS011;8595;52.542;11.974;2022-08-18T13:40:02;6.25;;;5.65;;
16957;SDS011;8595;52.542;11.974;2022-08-18T13:42:30;6.65;;;6.05;;
16957;SDS011;8595;52.542;11.974;2022-08-18T13:44:57;7.80;;;5.30;;
16957;SDS011;8595;52.542;11.974;2022-08-18T13:47:25;7.82;;;5.90;;
16957;SDS011;8595;52.542;11.974;2022-08-18T13:49:53;9.38;;;6.20;;
16957;SDS011;8595;52.542;11.974;2022-08-18T13:52:21;8.43;;;6.45;;
16957;SDS011;8595;52.542;11.974;2022-08-18T13:54:48;6.18;;;5.63;;
16957;SDS011;8595;52.542;11.974;2022-08-18T13:57:15;6.47;;;5.97;;
16957;SDS011;8595;52.542;11.974;2022-08-18T13:59:41;6.75;;;6.10;;
16957;SDS011;8595;52.542;11.974;2022-08-18T14:02:09;7.13;;;6.43;;
16957;SDS011;8595;52.542;11.974;2022-08-18T14:04:36;10.13;;;6.38;;
16957;SDS011;8595;52.542;11.974;2022-08-18T14:07:04;11.18;;;6.28;;
16957;SDS011;8595;52.542;11.974;2022-08-18T14:09:34;7.35;;;6.22;;
16957;SDS011;8595;52.542;11.974;2022-08-18T14:12:01;9.00;;;6.20;;
16957;SDS011;8595;52.542;11.974;2022-08-18T14:14:29;9.13;;;6.55;;
16957;SDS011;8595;52.542;11.974;2022-08-18T14:16:57;6.45;;;5.95;;
16957;SDS011;8595;52.542;11.974;2022-08-18T14:19:23;9.98;;;6.63;;
16957;SDS011;8595;52.542;11.974;2022-08-18T14:22:13;8.13;;;6.53;;
16957;SDS011;8595;52.542;11.974;2022-08-18T14:24:58;9.55;;;6.72;;
16957;SDS011;8595;52.542;11.974;2022-08-18T14:27:48;8.13;;;6.10;;
16957;SDS011;8595;52.542;11.974;2022-08-18T14:30:15;10.25;;;7.03;;
16957;SDS011;8595;52.542;11.974;2022-08-18T14:32:43;11.93;;;6.35;;
16957;SDS011;8595;52.542;11.974;2022-08-18T14:35:12;13.63;;;6.38;;
16957;SDS011;8595;52.542;11.974;2022-08-18T14:37:39;9.63;;;6.68;;
16957;SDS011;8595;52.542;11.974;2022-08-18T14:40:08;7.88;;;6.45;;
16957;SDS011;8595;52.542;11.974;2022-08-18T14:42:36;8.13;;;6.22;;
16957;SDS011;8595;52.542;11.974;2022-08-18T14:45:03;10.10;;;5.82;;
16957;SDS011;8595;52.542;11.974;2022-08-18T14:47:31;6.43;;;5.78;;
16957;SDS011;8595;52.542;11.974;2022-08-18T14:49:58;6.60;;;5.60;;
16957;SDS011;8595;52.542;11.974;2022-08-18T14:52:27;11.85;;;5.75;;
16957;SDS011;8595;52.542;11.974;2022-08-18T14:54:54;9.15;;;6.05;;
16957;SDS011;8595;52.542;11.974;2022-08-18T14:57:22;17.15;;;7.20;;
16957;SDS011;8595;52.542;11.974;2022-08-18T14:59:49;6.32;;;5.72;;
16957;SDS011;8595;52.542;11.974;2022-08-18T15:02:17;8.23;;;6.05;;
16957;SDS011;8595;52.542;11.974;2022-08-18T15:04:44;9.27;;;6.00;;
16957;SDS011;8595;52.542;11.974;2022-08-18T15:07:10;7.03;;;6.32;;
16957;SDS011;8595;52.542;11.974;2022-08-18T15:09:37;6.60;;;5.95;;
16957;SDS011;8595;52.542;11.974;2022-08-18T15:12:04;6.43;;;5.82;;
16957;SDS011;8595;52.542;11.974;2022-08-18T15:14:34;6.35;;;5.85;;
16957;SDS011;8595;52.542;11.974;2022-08-18T15:17:02;6.80;;;5.22;;
16957;SDS011;8595;52.542;11.974;2022-08-18T15:19:30;9.52;;;6.05;;
16957;SDS011;8595;52.542;11.974;2022-08-18T15:21:57;5.97;;;5.38;;
16957;SDS011;8595;52.542;11.974;2022-08-18T15:24:41;9.18;;;5.78;;